createdAt,value
2017-09-19T00:01:42.868Z,66.20
2017-09-19T00:04:09.327Z,65.70
2017-09-19T00:06:35.755Z,65.70
2017-09-19T00:09:02.307Z,65.10
2017-09-19T00:11:28.852Z,65.40
2017-09-19T00:13:56.761Z,65.70
2017-09-19T00:16:23.217Z,65.40
2017-09-19T00:18:49.676Z,65.50
2017-09-19T00:21:16.119Z,65.30
2017-09-19T00:23:42.536Z,65.10
2017-09-19T00:26:08.928Z,65.20
2017-09-19T00:28:35.356Z,65.10
2017-09-19T00:31:02.523Z,66.10
2017-09-19T00:33:28.959Z,66.00
2017-09-19T00:35:55.390Z,66.40
2017-09-19T00:38:21.847Z,66.50
2017-09-19T00:40:49.367Z,66.60
2017-09-19T00:43:16.023Z,66.00
2017-09-19T00:45:42.453Z,66.00
2017-09-19T00:48:09.071Z,66.00
2017-09-19T00:50:35.535Z,66.30
2017-09-19T00:53:01.972Z,66.80
2017-09-19T00:55:28.509Z,67.20
2017-09-19T00:58:03.101Z,67.70
2017-09-19T01:00:30.499Z,68.50
2017-09-19T01:02:56.977Z,68.40
2017-09-19T01:05:24.147Z,68.20
2017-09-19T01:07:50.594Z,68.10
2017-09-19T01:10:17.027Z,68.30
2017-09-19T01:12:43.458Z,67.80
2017-09-19T01:15:09.924Z,67.30
2017-09-19T01:17:36.376Z,67.20
2017-09-19T01:20:02.847Z,67.40
2017-09-19T01:22:29.532Z,67.60
2017-09-19T01:24:56.812Z,67.30
2017-09-19T01:27:24.039Z,67.50
2017-09-19T01:29:50.518Z,67.50
2017-09-19T01:32:17.007Z,67.20
2017-09-19T01:34:44.947Z,67.00
2017-09-19T01:37:11.367Z,67.00
2017-09-19T01:39:39.802Z,67.30
2017-09-19T01:42:08.826Z,68.40
2017-09-19T01:44:35.265Z,68.40
2017-09-19T01:47:01.661Z,68.60
2017-09-19T01:49:28.146Z,68.50
2017-09-19T01:51:54.563Z,68.70
2017-09-19T01:54:20.962Z,68.50
2017-09-19T01:56:48.862Z,67.60
2017-09-19T01:59:15.290Z,67.60
2017-09-19T02:01:41.706Z,67.40
2017-09-19T02:04:08.887Z,67.50
2017-09-19T02:06:35.306Z,67.50
2017-09-19T02:09:02.150Z,67.50
2017-09-19T02:11:28.550Z,67.30
2017-09-19T02:13:56.480Z,68.10
2017-09-19T02:16:22.956Z,68.10
2017-09-19T02:18:50.135Z,67.50
2017-09-19T02:21:16.579Z,67.50
2017-09-19T02:23:43.411Z,67.50
2017-09-19T02:26:09.880Z,67.80
2017-09-19T02:28:36.274Z,68.00
2017-09-19T02:31:04.139Z,68.00
2017-09-19T02:33:30.669Z,68.10
2017-09-19T02:35:57.106Z,67.90
2017-09-19T02:38:23.558Z,67.30
2017-09-19T02:40:50.010Z,67.30
2017-09-19T02:43:16.405Z,67.50
2017-09-19T02:45:42.817Z,67.30
2017-09-19T02:48:09.985Z,67.60
2017-09-19T02:50:37.134Z,67.80
2017-09-19T02:53:04.295Z,67.70
2017-09-19T02:55:30.698Z,67.60
2017-09-19T02:57:57.102Z,67.70
2017-09-19T03:00:23.539Z,68.30
2017-09-19T03:02:51.483Z,67.40
2017-09-19T03:05:17.959Z,67.30
2017-09-19T03:07:45.115Z,67.00
2017-09-19T03:10:11.555Z,67.10
2017-09-19T03:12:38.750Z,67.40
2017-09-19T03:15:05.170Z,67.40
2017-09-19T03:17:31.666Z,67.30
2017-09-19T03:19:59.471Z,67.30
2017-09-19T03:25:05.293Z,66.90
2017-09-19T03:27:31.850Z,67.30
2017-09-19T03:29:58.323Z,67.50
2017-09-19T03:32:24.965Z,67.60
2017-09-19T03:34:51.399Z,68.30
2017-09-19T03:37:17.799Z,67.90
2017-09-19T03:39:44.200Z,68.60
2017-09-19T03:42:10.656Z,68.40
2017-09-19T03:44:37.098Z,68.80
2017-09-19T03:47:03.498Z,68.80
2017-09-19T03:49:29.914Z,69.20
2017-09-19T03:51:56.341Z,68.60
2017-09-19T03:54:22.780Z,68.60
2017-09-19T03:56:49.179Z,68.30
2017-09-19T03:59:15.611Z,68.30
2017-09-19T04:01:42.045Z,68.50
2017-09-19T04:04:08.453Z,68.80
2017-09-19T04:06:35.670Z,68.70
2017-09-19T04:09:02.111Z,68.80
2017-09-19T04:11:28.578Z,68.70
2017-09-19T04:13:55.002Z,69.00
2017-09-19T04:16:22.316Z,68.90
2017-09-19T04:18:48.823Z,68.90
2017-09-19T04:21:15.238Z,68.90
2017-09-19T04:23:41.672Z,69.10
2017-09-19T04:26:08.143Z,69.90
2017-09-19T04:28:34.735Z,70.30
2017-09-19T04:31:01.289Z,70.10
2017-09-19T04:33:27.887Z,70.00
2017-09-19T04:35:55.048Z,69.80
2017-09-19T04:38:22.277Z,70.20
2017-09-19T04:40:49.449Z,70.80
2017-09-19T04:43:16.607Z,70.50
2017-09-19T04:45:43.029Z,70.40
2017-09-19T04:48:11.108Z,70.20
2017-09-19T04:50:37.526Z,70.10
2017-09-19T04:53:05.226Z,69.90
2017-09-19T04:55:31.781Z,69.80
2017-09-19T04:57:58.230Z,69.80
2017-09-19T05:00:24.759Z,70.10
2017-09-19T05:02:51.194Z,70.20
2017-09-19T05:05:17.647Z,70.00
2017-09-19T05:07:44.810Z,69.70
2017-09-19T05:10:13.119Z,69.90
2017-09-19T05:12:40.700Z,69.90
2017-09-19T05:15:07.123Z,69.90
2017-09-19T05:17:33.603Z,68.70
2017-09-19T05:20:00.884Z,69.90
2017-09-19T05:22:27.375Z,69.90
2017-09-19T05:24:54.566Z,70.50
2017-09-19T05:27:21.008Z,70.50
2017-09-19T05:29:47.495Z,70.00
2017-09-19T05:32:16.456Z,68.10
2017-09-19T05:34:42.871Z,68.10
2017-09-19T05:37:09.366Z,68.80
2017-09-19T05:39:35.838Z,69.00
2017-09-19T05:42:02.999Z,68.90
2017-09-19T05:44:29.508Z,68.90
2017-09-19T05:46:55.950Z,69.00
2017-09-19T05:49:22.418Z,68.90
2017-09-19T05:51:49.603Z,68.60
2017-09-19T05:54:16.043Z,68.70
2017-09-19T05:56:43.183Z,68.50
2017-09-19T05:59:10.346Z,68.10
2017-09-19T06:01:37.608Z,68.20
2017-09-19T06:04:04.045Z,68.20
2017-09-19T06:06:30.611Z,67.90
2017-09-19T06:09:09.249Z,68.30
2017-09-19T06:11:36.807Z,68.60
2017-09-19T06:14:03.571Z,68.10
2017-09-19T06:16:30.870Z,68.30
2017-09-19T06:18:57.404Z,68.30
2017-09-19T06:21:23.853Z,68.20
2017-09-19T06:23:50.298Z,67.70
2017-09-19T06:26:16.742Z,67.60
2017-09-19T06:28:43.303Z,67.20
2017-09-19T06:31:10.494Z,67.20
2017-09-19T06:33:37.943Z,67.30
2017-09-19T06:36:05.897Z,66.60
2017-09-19T06:38:33.133Z,66.40
2017-09-19T06:40:59.603Z,66.40
2017-09-19T06:43:26.087Z,66.20
2017-09-19T06:45:53.271Z,66.90
2017-09-19T06:48:19.690Z,66.90
2017-09-19T06:50:46.883Z,66.00
2017-09-19T06:53:13.342Z,66.00
2017-09-19T06:55:39.774Z,65.90
2017-09-19T06:58:06.190Z,65.70
2017-09-19T07:00:34.294Z,65.50
2017-09-19T07:03:01.726Z,65.70
2017-09-19T07:05:28.265Z,65.80
2017-09-19T07:07:55.454Z,66.10
2017-09-19T07:10:22.759Z,64.80
2017-09-19T07:12:49.227Z,64.80
2017-09-19T07:15:15.702Z,65.00
2017-09-19T07:17:42.187Z,65.30
2017-09-19T07:20:08.790Z,65.20
2017-09-19T07:22:35.723Z,64.90
2017-09-19T07:25:02.657Z,65.00
2017-09-19T07:27:30.628Z,64.80
2017-09-19T07:29:58.226Z,65.00
2017-09-19T07:32:25.716Z,65.10
2017-09-19T07:34:52.199Z,65.10
2017-09-19T07:37:18.838Z,64.60
2017-09-19T07:39:45.275Z,64.50
2017-09-19T07:42:12.531Z,65.10
2017-09-19T07:44:38.960Z,65.10
2017-09-19T07:47:05.463Z,64.60
2017-09-19T07:49:33.239Z,63.80
2017-09-19T07:52:00.570Z,64.10
2017-09-19T07:54:27.084Z,64.10
2017-09-19T07:56:53.894Z,63.90
2017-09-19T07:59:20.506Z,64.50
2017-09-19T08:01:46.975Z,64.60
2017-09-19T08:04:13.400Z,64.00
2017-09-19T08:06:39.819Z,63.90
2017-09-19T08:09:06.290Z,63.20
2017-09-19T08:11:33.603Z,63.20
2017-09-19T08:14:00.966Z,63.10
2017-09-19T08:16:28.222Z,63.50
2017-09-19T08:18:54.751Z,62.50
2017-09-19T08:21:21.291Z,62.30
2017-09-19T08:23:47.767Z,62.20
2017-09-19T08:26:14.374Z,62.90
2017-09-19T08:28:41.559Z,62.30
2017-09-19T08:31:08.751Z,62.20
2017-09-19T08:33:35.592Z,62.20
2017-09-19T08:36:02.838Z,62.10
2017-09-19T08:38:29.566Z,62.00
2017-09-19T08:40:55.988Z,62.20
2017-09-19T08:43:23.184Z,62.90
2017-09-19T08:45:49.643Z,62.90
2017-09-19T08:48:16.958Z,63.00
2017-09-19T08:50:43.368Z,62.40
2017-09-19T08:53:10.563Z,61.50
2017-09-19T08:55:37.149Z,61.60
2017-09-19T08:58:04.328Z,61.40
2017-09-19T09:00:31.161Z,61.40
2017-09-19T09:02:57.586Z,61.50
2017-09-19T09:05:24.121Z,61.30
2017-09-19T09:07:50.606Z,61.50
2017-09-19T09:10:17.027Z,61.20
2017-09-19T09:12:43.439Z,60.70
2017-09-19T09:15:09.882Z,59.80
2017-09-19T09:17:36.321Z,60.10
2017-09-19T09:20:02.833Z,60.10
2017-09-19T09:22:30.054Z,59.90
2017-09-19T09:24:56.494Z,59.20
2017-09-19T09:27:23.792Z,58.10
2017-09-19T09:29:50.281Z,58.20
2017-09-19T09:32:16.764Z,58.60
2017-09-19T09:34:43.196Z,58.20
2017-09-19T09:37:09.630Z,58.10
2017-09-19T09:39:36.070Z,58.40
2017-09-19T09:42:02.954Z,58.20
2017-09-19T09:44:30.167Z,57.30
2017-09-19T09:46:56.675Z,57.20
2017-09-19T09:49:23.276Z,57.80
2017-09-19T09:51:49.758Z,57.40
2017-09-19T09:54:16.211Z,56.90
2017-09-19T09:56:42.682Z,56.40
2017-09-19T09:59:09.867Z,55.80
2017-09-19T10:01:36.339Z,55.80
2017-09-19T10:04:02.798Z,56.10
2017-09-19T10:06:30.182Z,55.90
2017-09-19T10:08:56.619Z,55.90
2017-09-19T10:11:23.209Z,55.60
2017-09-19T10:13:50.388Z,54.80
2017-09-19T10:16:16.818Z,54.70
2017-09-19T10:18:43.267Z,55.20
2017-09-19T10:21:09.692Z,54.10
2017-09-19T10:23:36.325Z,54.00
2017-09-19T10:26:02.851Z,53.10
2017-09-19T10:28:30.087Z,52.30
2017-09-19T10:30:57.287Z,52.80
2017-09-19T10:33:23.927Z,52.80
2017-09-19T10:35:50.370Z,52.90
2017-09-19T10:38:16.799Z,53.40
2017-09-19T10:40:43.303Z,52.50
2017-09-19T10:43:09.770Z,52.70
2017-09-19T10:45:36.186Z,52.10
2017-09-19T10:48:02.650Z,52.10
2017-09-19T10:50:29.352Z,51.80
2017-09-19T10:52:55.808Z,51.80
2017-09-19T10:55:22.360Z,53.00
2017-09-19T10:57:50.177Z,51.20
2017-09-19T11:00:16.616Z,51.60
2017-09-19T11:02:43.022Z,51.70
2017-09-19T11:05:10.179Z,50.40
2017-09-19T11:07:37.360Z,51.30
2017-09-19T11:10:03.790Z,51.30
2017-09-19T11:12:30.341Z,50.00
2017-09-19T11:14:56.772Z,49.80
2017-09-19T11:17:23.301Z,49.30
2017-09-19T11:19:49.775Z,50.60
2017-09-19T11:22:17.402Z,49.10
2017-09-19T11:24:43.949Z,49.60
2017-09-19T11:27:10.403Z,49.80
2017-09-19T11:29:36.911Z,48.90
2017-09-19T11:32:03.326Z,47.40
2017-09-19T11:34:29.818Z,48.60
2017-09-19T11:36:57.069Z,48.10
2017-09-19T11:39:24.529Z,47.20
2017-09-19T11:41:51.023Z,47.30
2017-09-19T11:44:17.548Z,46.70
2017-09-19T11:46:43.987Z,45.20
2017-09-19T11:49:10.805Z,46.20
2017-09-19T11:51:37.343Z,46.10
2017-09-19T11:54:03.779Z,46.20
2017-09-19T11:56:30.315Z,46.20
2017-09-19T11:58:57.530Z,45.90
2017-09-19T12:01:24.191Z,45.40
2017-09-19T12:03:50.806Z,45.50
2017-09-19T12:06:17.993Z,45.10
2017-09-19T12:08:44.446Z,45.00
2017-09-19T12:11:10.898Z,45.30
2017-09-19T12:13:37.339Z,45.10
2017-09-19T12:16:03.769Z,45.10
2017-09-19T12:18:32.150Z,45.50
2017-09-19T12:20:58.994Z,45.30
2017-09-19T12:23:25.452Z,45.50
2017-09-19T12:25:52.654Z,44.30
2017-09-19T12:28:19.100Z,44.30
2017-09-19T12:30:46.514Z,44.20
2017-09-19T12:33:12.944Z,44.70
2017-09-19T12:35:39.366Z,45.20
2017-09-19T12:38:06.563Z,46.00
2017-09-19T12:40:33.227Z,46.00
2017-09-19T12:45:26.447Z,45.10
2017-09-19T12:47:52.908Z,46.20
2017-09-19T12:50:19.375Z,46.30
2017-09-19T12:52:45.861Z,47.00
2017-09-19T12:55:12.323Z,46.50
2017-09-19T12:57:39.819Z,46.00
2017-09-19T13:00:06.580Z,46.30
2017-09-19T13:02:33.243Z,47.30
2017-09-19T13:04:59.683Z,46.60
2017-09-19T13:07:26.292Z,47.80
2017-09-19T13:09:52.757Z,47.80
2017-09-19T13:12:19.188Z,48.10
2017-09-19T13:14:45.603Z,48.10
2017-09-19T13:17:12.903Z,47.50
2017-09-19T13:19:40.100Z,47.70
2017-09-19T13:22:06.591Z,47.60
2017-09-19T13:24:33.955Z,48.60
2017-09-19T13:27:00.371Z,48.60
2017-09-19T13:29:27.288Z,47.50
2017-09-19T13:32:05.985Z,47.70
2017-09-19T13:34:32.497Z,47.90
2017-09-19T13:36:59.023Z,48.00
2017-09-19T13:39:26.277Z,47.40
2017-09-19T13:41:53.691Z,47.30
2017-09-19T13:44:20.182Z,47.30
2017-09-19T13:46:46.604Z,47.20
2017-09-19T13:49:13.781Z,47.30
2017-09-19T13:51:40.280Z,47.90
2017-09-19T13:54:20.984Z,47.60
2017-09-19T13:57:00.697Z,47.40
2017-09-19T13:59:27.210Z,47.10
2017-09-19T14:01:54.394Z,46.40
2017-09-19T14:04:21.735Z,47.70
2017-09-19T14:06:48.910Z,46.50
2017-09-19T14:09:16.034Z,46.70
2017-09-19T14:11:42.557Z,46.70
2017-09-19T14:14:10.178Z,47.40
2017-09-19T14:16:37.396Z,46.90
2017-09-19T14:19:04.592Z,46.20
2017-09-19T14:21:32.120Z,46.20
2017-09-19T14:23:58.612Z,47.00
2017-09-19T14:26:25.053Z,46.70
2017-09-19T14:28:52.281Z,46.70
2017-09-19T14:31:20.340Z,46.90
2017-09-19T14:33:46.948Z,46.80
2017-09-19T14:36:13.922Z,47.10
2017-09-19T14:38:40.484Z,47.30
2017-09-19T14:41:06.926Z,46.40
2017-09-19T14:43:33.482Z,45.80
2017-09-19T14:46:00.932Z,46.50
2017-09-19T14:48:28.591Z,46.30
2017-09-19T14:50:55.091Z,46.40
2017-09-19T14:53:22.740Z,46.00
2017-09-19T14:55:50.292Z,46.90
2017-09-19T14:58:17.123Z,46.90
2017-09-19T15:00:43.889Z,45.70
2017-09-19T15:03:11.721Z,45.70
2017-09-19T15:05:38.645Z,46.00
2017-09-19T15:08:05.326Z,45.90
2017-09-19T15:10:31.956Z,46.10
2017-09-19T15:12:58.424Z,46.70
2017-09-19T15:15:24.940Z,46.90
2017-09-19T15:17:51.515Z,45.80
2017-09-19T15:20:18.146Z,45.70
2017-09-19T15:22:44.655Z,46.30
2017-09-19T15:25:11.099Z,46.10
2017-09-19T15:27:37.582Z,46.90
2017-09-19T15:30:04.536Z,47.10
2017-09-19T15:32:31.705Z,46.70
2017-09-19T15:34:58.140Z,46.70
2017-09-19T15:37:25.267Z,46.90
2017-09-19T15:39:51.859Z,47.70
2017-09-19T15:42:21.019Z,48.30
2017-09-19T15:44:47.643Z,48.30
2017-09-19T15:47:14.541Z,48.00
2017-09-19T15:49:41.941Z,48.40
2017-09-19T15:52:08.547Z,48.40
2017-09-19T15:54:35.805Z,49.20
2017-09-19T15:57:03.192Z,49.10
2017-09-19T15:59:29.843Z,49.10
2017-09-19T16:01:56.562Z,49.50
2017-09-19T16:04:24.308Z,49.80
2017-09-19T16:06:50.941Z,49.90
2017-09-19T16:09:18.119Z,50.00
2017-09-19T16:11:45.011Z,49.90
2017-09-19T16:14:12.394Z,49.40
2017-09-19T16:16:39.376Z,49.70
2017-09-19T16:19:05.842Z,50.50
2017-09-19T16:21:32.313Z,49.90
2017-09-19T16:23:58.783Z,49.40
2017-09-19T16:26:25.268Z,49.80
2017-09-19T16:28:52.863Z,49.80
2017-09-19T16:31:19.307Z,49.80
2017-09-19T16:33:45.899Z,49.30
2017-09-19T16:36:12.610Z,49.50
2017-09-19T16:38:39.889Z,49.50
2017-09-19T16:41:06.702Z,49.50
2017-09-19T16:43:34.832Z,50.10
2017-09-19T16:46:02.235Z,50.00
2017-09-19T16:48:28.834Z,50.00
2017-09-19T16:50:55.420Z,50.20
2017-09-19T16:53:22.651Z,50.30
2017-09-19T16:55:49.283Z,50.20
2017-09-19T16:58:15.845Z,50.50
2017-09-19T17:00:42.323Z,50.80
2017-09-19T17:03:08.725Z,51.20
2017-09-19T17:05:35.903Z,51.50
2017-09-19T17:08:03.259Z,51.30
2017-09-19T17:10:31.011Z,51.20
2017-09-19T17:12:57.463Z,51.50
2017-09-19T17:15:23.943Z,51.60
2017-09-19T17:17:51.879Z,52.00
2017-09-19T17:20:18.323Z,52.00
2017-09-19T17:22:44.968Z,52.10
2017-09-19T17:25:11.471Z,52.20
2017-09-19T17:27:38.069Z,52.20
2017-09-19T17:30:04.543Z,52.10
2017-09-19T17:32:31.144Z,51.80
2017-09-19T17:34:57.735Z,52.00
2017-09-19T17:37:24.257Z,52.30
2017-09-19T17:39:50.819Z,52.30
2017-09-19T17:42:18.801Z,52.80
2017-09-19T17:44:46.135Z,53.00
2017-09-19T17:47:13.390Z,53.10
2017-09-19T17:49:40.777Z,52.80
2017-09-19T17:52:08.074Z,53.50
2017-09-19T17:54:34.670Z,53.50
2017-09-19T17:57:02.027Z,53.70
2017-09-19T17:59:30.055Z,53.80
2017-09-19T18:01:56.514Z,53.80
2017-09-19T18:04:23.766Z,54.20
2017-09-19T18:06:53.216Z,54.50
2017-09-19T18:09:19.944Z,54.40
2017-09-19T18:11:46.735Z,54.30
2017-09-19T18:14:14.152Z,54.70
2017-09-19T18:16:40.771Z,54.70
2017-09-19T18:19:07.415Z,55.00
2017-09-19T18:21:34.084Z,55.30
2017-09-19T18:24:00.915Z,55.50
2017-09-19T18:26:27.417Z,55.80
2017-09-19T18:28:54.652Z,56.30
2017-09-19T18:31:21.101Z,56.10
2017-09-19T18:33:49.379Z,57.00
2017-09-19T18:36:16.091Z,56.40
2017-09-19T18:38:42.633Z,56.40
2017-09-19T18:41:09.149Z,56.50
2017-09-19T18:43:35.614Z,56.50
2017-09-19T18:46:02.836Z,56.80
2017-09-19T18:48:29.277Z,56.70
2017-09-19T18:50:55.738Z,56.90
2017-09-19T18:53:22.931Z,57.20
2017-09-19T18:55:49.387Z,57.10
2017-09-19T18:58:15.840Z,56.90
2017-09-19T19:00:42.701Z,56.80
2017-09-19T19:03:09.881Z,56.70
2017-09-19T19:05:36.322Z,56.60
2017-09-19T19:08:02.766Z,56.10
2017-09-19T19:10:29.225Z,56.40
2017-09-19T19:12:55.642Z,58.10
2017-09-19T19:15:22.129Z,59.10
2017-09-19T19:17:48.605Z,60.80
2017-09-19T19:20:15.052Z,62.00
2017-09-19T19:22:41.739Z,63.20
2017-09-19T19:25:08.225Z,64.20
2017-09-19T19:27:34.744Z,65.00
2017-09-19T19:30:01.306Z,65.40
2017-09-19T19:32:27.920Z,66.00
2017-09-19T19:34:54.431Z,66.20
2017-09-19T19:37:20.919Z,66.20
2017-09-19T19:39:48.100Z,66.10
2017-09-19T19:42:14.628Z,66.10
2017-09-19T19:44:41.423Z,66.20
2017-09-19T19:47:07.862Z,66.20
2017-09-19T19:49:34.492Z,66.50
2017-09-19T19:52:00.963Z,66.40
2017-09-19T19:54:28.375Z,66.60
2017-09-19T19:56:54.986Z,66.50
2017-09-19T19:59:21.973Z,67.50
2017-09-19T20:01:48.650Z,67.40
2017-09-19T20:04:15.874Z,66.10
2017-09-19T20:06:42.420Z,66.00
2017-09-19T20:09:09.763Z,66.10
2017-09-19T20:11:36.335Z,66.10
2017-09-19T20:14:04.068Z,66.40
2017-09-19T20:16:31.403Z,66.80
2017-09-19T20:18:57.836Z,66.80
2017-09-19T20:21:24.367Z,66.20
2017-09-19T20:23:50.820Z,67.30
2017-09-19T20:26:18.553Z,67.70
2017-09-19T20:28:46.436Z,67.60
2017-09-19T20:31:13.388Z,67.60
2017-09-19T20:33:40.611Z,67.90
2017-09-19T20:36:07.054Z,67.30
2017-09-19T20:38:34.067Z,67.60
2017-09-19T20:41:00.524Z,67.10
2017-09-19T20:43:27.258Z,67.60
2017-09-19T20:45:54.575Z,67.80
2017-09-19T20:48:21.901Z,68.20
2017-09-19T20:50:48.347Z,68.20
2017-09-19T20:53:16.361Z,68.60
2017-09-19T20:55:43.023Z,68.30
2017-09-19T20:58:09.448Z,68.60
2017-09-19T21:00:35.909Z,68.70
2017-09-19T21:03:03.475Z,68.70
2017-09-19T21:05:37.387Z,69.60
2017-09-19T21:08:09.927Z,69.70
2017-09-19T21:10:42.367Z,68.40
2017-09-19T21:13:15.564Z,69.60
2017-09-19T21:15:48.844Z,69.50
2017-09-19T21:18:21.560Z,69.50
2017-09-19T21:20:50.336Z,69.20
2017-09-19T21:23:16.758Z,69.20
2017-09-19T21:25:44.430Z,69.90
2017-09-19T21:28:10.935Z,69.80
2017-09-19T21:30:37.358Z,69.00
2017-09-19T21:33:03.767Z,69.40
2017-09-19T21:35:30.412Z,69.00
2017-09-19T21:37:57.628Z,69.40
2017-09-19T21:40:24.067Z,69.40
2017-09-19T21:42:50.495Z,69.80
2017-09-19T21:45:16.930Z,69.60
2017-09-19T21:47:43.592Z,69.30
2017-09-19T21:50:10.034Z,69.40
2017-09-19T21:52:36.451Z,69.60
2017-09-19T21:55:02.905Z,69.10
2017-09-19T21:57:29.355Z,68.40
2017-09-19T21:59:56.539Z,68.60
2017-09-19T22:02:23.120Z,68.60
2017-09-19T22:04:49.557Z,68.70
2017-09-19T22:07:16.027Z,68.20
2017-09-19T22:09:42.554Z,67.80
2017-09-19T22:12:08.987Z,67.90
2017-09-19T22:14:35.386Z,67.70
2017-09-19T22:17:01.837Z,67.80
2017-09-19T22:19:28.318Z,67.70
2017-09-19T22:21:54.767Z,67.40
2017-09-19T22:24:21.187Z,67.60
2017-09-19T22:26:47.643Z,67.50
2017-09-19T22:29:14.070Z,67.50
2017-09-19T22:31:40.502Z,67.60
2017-09-19T22:34:06.910Z,67.50
2017-09-19T22:36:33.336Z,67.40
2017-09-19T22:39:00.500Z,67.00
2017-09-19T22:41:26.948Z,67.00
2017-09-19T22:43:53.395Z,66.80
2017-09-19T22:46:19.802Z,67.30
2017-09-19T22:48:46.279Z,66.70
2017-09-19T22:51:12.707Z,67.30
2017-09-19T22:53:39.866Z,67.20
2017-09-19T22:56:06.302Z,67.40
2017-09-19T22:58:33.814Z,67.80
2017-09-19T23:01:00.252Z,67.40
2017-09-19T23:03:26.682Z,66.90
2017-09-19T23:05:53.145Z,66.50
2017-09-19T23:08:21.813Z,67.80
2017-09-19T23:10:48.280Z,67.60
2017-09-19T23:13:14.703Z,67.80
2017-09-19T23:15:41.152Z,67.70
2017-09-19T23:18:07.577Z,67.80
2017-09-19T23:20:34.096Z,68.20
2017-09-19T23:23:00.542Z,68.00
2017-09-19T23:25:27.074Z,68.10
2017-09-19T23:27:53.707Z,68.70
2017-09-19T23:30:20.168Z,69.10
2017-09-19T23:32:47.427Z,68.70
2017-09-19T23:35:14.631Z,68.40
2017-09-19T23:37:41.104Z,68.40
2017-09-19T23:40:09.031Z,68.30
2017-09-19T23:42:35.503Z,68.30
2017-09-19T23:45:01.934Z,68.00
2017-09-19T23:47:28.501Z,67.50
2017-09-19T23:49:54.979Z,67.40
2017-09-19T23:52:21.438Z,66.70
2017-09-19T23:54:47.867Z,67.20
2017-09-19T23:57:14.291Z,66.80
2017-09-19T23:59:41.440Z,66.40
